Time;durP1;ratioP1;P1;durP2;ratioP2;P2;SDS_P1;SDS_P2;PMS_P1;PMS_P2;Temp;Humidity;BMP_temperature;BMP_pressure;BME280_temperature;BME280_humidity;BME280_pressure;Samples;Min_cycle;Max_cycle;Signal;HPM_P1;HPM_P2
2022/09/23 00:01:15;;;;;;;4.65;2.67;;;;;;;10.28;70.13;99600.41;4848286;29;20098;-91
2022/09/23 00:03:41;;;;;;;4.70;2.85;;;;;;;10.29;69.76;99594.00;4833985;29;20029;-91
2022/09/23 00:06:11;;;;;;;5.07;3.40;;;;;;;10.34;69.77;99597.78;4833954;29;20041;-90
2022/09/23 00:08:36;;;;;;;6.03;3.53;;;;;;;10.34;69.23;99584.31;4834271;29;20420;-91
2022/09/23 00:11:10;;;;;;;5.75;4.32;;;;;;;10.35;68.69;99586.75;4849090;29;20033;-90
2022/09/23 00:13:36;;;;;;;6.13;4.35;;;;;;;10.42;68.49;99589.22;4833500;29;20033;-90
2022/09/23 00:16:05;;;;;;;7.63;3.88;;;;;;;10.46;69.02;99603.78;4848411;29;20029;-91
2022/09/23 00:18:31;;;;;;;8.55;4.07;;;;;;;10.23;69.26;99586.94;4830685;29;20398;-91
2022/09/23 00:20:56;;;;;;;6.93;3.72;;;;;;;10.17;69.48;99581.75;4830287;29;20113;-91
2022/09/23 00:23:22;;;;;;;6.68;4.30;;;;;;;10.30;69.55;99595.59;4830506;29;20034;-91
2022/09/23 00:25:57;;;;;;;6.03;4.15;;;;;;;10.01;70.52;99586.25;4815255;29;20074;-90
2022/09/23 00:28:23;;;;;;;3.83;2.38;;;;;;;9.89;71.87;99592.63;4814975;29;20034;-91
2022/09/23 00:30:48;;;;;;;9.77;3.20;;;;;;;9.76;71.87;99587.69;4830252;29;20572;-91
2022/09/23 00:33:14;;;;;;;5.15;3.17;;;;;;;9.60;73.03;99581.38;4829843;29;20085;-90
2022/09/23 00:35:39;;;;;;;3.83;2.70;;;;;;;9.61;72.72;99580.34;4829757;29;20093;-91
2022/09/23 00:38:05;;;;;;;4.20;2.97;;;;;;;9.52;72.71;99573.78;4830513;29;20033;-91
2022/09/23 00:40:31;;;;;;;4.82;3.00;;;;;;;9.62;72.37;99586.50;4829816;29;20485;-90
2022/09/23 00:42:56;;;;;;;4.65;3.22;;;;;;;9.61;72.00;99574.16;4829987;29;20045;-90
2022/09/23 00:45:22;;;;;;;5.00;3.40;;;;;;;9.54;72.52;99573.53;4829644;29;20501;-91
2022/09/23 00:47:51;;;;;;;5.85;3.00;;;;;;;9.31;73.67;99575.50;4829997;29;20476;-91
2022/09/23 00:50:22;;;;;;;3.90;2.50;;;;;;;9.55;73.00;99594.00;4830988;29;20093;-91
2022/09/23 00:52:48;;;;;;;4.93;2.75;;;;;;;9.34;72.71;99568.78;4845301;29;20046;-90
2022/09/23 00:55:24;;;;;;;4.35;2.75;;;;;;;9.43;73.10;99589.56;4828949;29;20042;-91
2022/09/23 00:57:49;;;;;;;4.28;2.75;;;;;;;9.40;73.73;99584.72;4815526;29;20032;-91
2022/09/23 01:00:15;;;;;;;12.52;3.78;;;;;;;9.12;73.75;99568.88;4829861;29;20029;-91
2022/09/23 01:02:40;;;;;;;4.53;3.28;;;;;;;9.15;74.10;99581.78;4829930;29;20033;-91
2022/09/23 01:05:06;;;;;;;4.53;3.30;;;;;;;9.27;73.16;99579.75;4828775;29;20093;-91
2022/09/23 01:07:33;;;;;;;5.47;3.60;;;;;;;9.09;74.12;99579.06;4813816;29;20025;-91
2022/09/23 01:09:59;;;;;;;4.78;3.28;;;;;;;9.25;73.02;99563.88;4829344;29;20477;-90
2022/09/23 01:12:27;;;;;;;5.43;3.40;;;;;;;9.23;74.12;99586.69;4829204;29;20029;-91
2022/09/23 01:15:10;;;;;;;5.30;3.65;;;;;;;9.05;74.51;99571.78;4860316;29;20029;-91
2022/09/23 01:18:03;;;;;;;4.78;3.22;;;;;;;9.12;74.07;99572.38;4845808;29;20033;-90
2022/09/23 01:20:34;;;;;;;3.97;3.05;;;;;;;9.23;73.77;99584.81;4836090;29;20041;-91
2022/09/23 01:23:15;;;;;;;5.97;3.30;;;;;;;9.17;73.53;99568.91;4860787;29;20033;-91
2022/09/23 01:25:46;;;;;;;5.35;3.10;;;;;;;9.36;72.90;99586.31;4827292;29;20133;-91
2022/09/23 01:28:57;;;;;;;5.13;3.58;;;;;;;9.17;74.66;99582.34;4843912;29;20397;-90
2022/09/23 01:31:53;;;;;;;5.85;3.30;;;;;;;8.97;75.05;99591.81;4824967;29;20065;-91
2022/09/23 01:34:23;;;;;;;4.53;3.00;;;;;;;8.93;74.58;99579.16;4823501;29;20068;-90
2022/09/23 01:37:11;;;;;;;4.72;3.25;;;;;;;8.87;75.01;99597.88;4811680;29;20470;-91
2022/09/23 01:40:00;;;;;;;4.57;3.03;;;;;;;9.01;74.06;99603.69;4821365;29;20143;-91
2022/09/23 01:42:52;;;;;;;6.55;3.35;;;;;;;9.07;73.81;99601.88;4817280;29;20045;-90
2022/09/23 01:45:25;;;;;;;4.65;3.40;;;;;;;9.18;73.54;99592.03;4804810;29;20044;-91
2022/09/23 01:47:56;;;;;;;4.88;3.00;;;;;;;9.27;73.34;99595.88;4840992;29;20102;-90
2022/09/23 01:53:22;;;;;;;6.63;3.42;;;;;;;8.89;73.70;99576.97;4816185;29;20099;-91
2022/09/23 01:55:50;;;;;;;5.65;3.08;;;;;;;8.90;73.46;99581.28;4811612;29;20117;-91
2022/09/23 01:58:24;;;;;;;5.65;3.47;;;;;;;9.12;72.98;99598.41;4811059;29;20030;-91
2022/09/23 02:00:54;;;;;;;6.30;3.85;;;;;;;8.92;73.13;99588.25;4811196;29;20029;-91
2022/09/23 02:03:39;;;;;;;6.78;3.42;;;;;;;8.93;73.61;99606.00;4810490;29;20034;-91
2022/09/23 02:06:20;;;;;;;4.63;3.33;;;;;;;8.60;73.92;99581.75;4811218;29;20092;-91
2022/09/23 02:08:59;;;;;;;9.35;3.55;;;;;;;8.76;73.75;99604.22;4811801;29;20030;-91
2022/09/23 02:11:24;;;;;;;6.57;3.78;;;;;;;8.51;74.63;99583.25;4840822;29;20026;-91
2022/09/23 02:13:57;;;;;;;5.68;3.92;;;;;;;8.52;74.44;99594.78;4810689;29;20148;-91
2022/09/23 02:16:25;;;;;;;5.03;3.67;;;;;;;8.67;73.91;99603.84;4810692;29;20091;-90
2022/09/23 02:18:55;;;;;;;5.22;3.35;;;;;;;8.59;74.68;99598.91;4840696;29;20512;-91
2022/09/23 02:21:21;;;;;;;6.40;3.67;;;;;;;8.50;74.66;99601.19;4811612;29;20030;-90
2022/09/23 02:23:58;;;;;;;5.50;3.63;;;;;;;8.28;75.25;99592.31;4814103;29;20038;-91
2022/09/23 02:26:30;;;;;;;6.05;4.00;;;;;;;8.45;74.95;99622.63;4814713;29;20040;-91
2022/09/23 02:29:17;;;;;;;5.40;3.72;;;;;;;8.23;75.58;99606.44;4844252;29;20030;-91
2022/09/23 02:31:42;;;;;;;6.18;3.63;;;;;;;8.28;75.51;99625.31;4814565;29;20029;-90
2022/09/23 02:34:20;;;;;;;7.97;3.40;;;;;;;8.28;75.23;99617.25;4852583;29;20030;-91
2022/09/23 02:37:01;;;;;;;3.75;2.65;;;;;;;8.19;74.79;99599.16;4862506;29;20033;-91
2022/09/23 02:39:31;;;;;;;4.78;3.08;;;;;;;8.34;74.00;99599.34;4863083;29;20041;-91
2022/09/23 02:42:08;;;;;;;5.00;3.35;;;;;;;8.27;74.54;99593.34;4832266;29;20041;-91
2022/09/23 02:44:34;;;;;;;5.00;3.20;;;;;;;8.49;73.87;99598.78;4817915;29;20041;-90
2022/09/23 02:47:00;;;;;;;6.00;3.30;;;;;;;8.43;74.02;99592.53;4833195;29;20033;-91
2022/09/23 02:49:28;;;;;;;9.25;3.15;;;;;;;8.21;74.89;99592.47;4831337;29;20033;-90
2022/09/23 02:51:53;;;;;;;5.28;3.33;;;;;;;8.17;75.19;99594.03;4816810;29;20049;-90
2022/09/23 02:54:24;;;;;;;6.28;3.25;;;;;;;8.18;75.39;99605.59;4832088;29;20110;-90
2022/09/23 02:56:50;;;;;;;6.28;3.05;;;;;;;8.15;74.67;99601.50;4817084;29;20046;-90
2022/09/23 02:59:18;;;;;;;4.55;3.35;;;;;;;8.33;74.20;99616.50;4836342;29;20025;-91
2022/09/23 03:02:12;;;;;;;7.65;3.17;;;;;;;8.51;73.96;99628.88;4824253;29;20045;-91
2022/09/23 03:04:49;;;;;;;5.03;3.83;;;;;;;8.24;74.21;99608.09;4869273;29;20044;-90
2022/09/23 03:07:17;;;;;;;7.95;4.00;;;;;;;8.54;74.00;99636.41;4838558;29;20101;-91
2022/09/23 03:09:59;;;;;;;6.18;4.00;;;;;;;8.64;73.69;99616.94;4864331;29;20039;-90
2022/09/23 03:12:47;;;;;;;8.10;4.63;;;;;;;8.86;73.17;99624.97;4832002;29;20492;-90
2022/09/23 03:15:40;;;;;;;8.63;5.00;;;;;;;9.00;71.98;99626.22;4863747;29;20029;-91
2022/09/23 03:18:15;;;;;;;5.75;3.97;;;;;;;9.08;70.73;99625.78;4861771;29;20029;-91
2022/09/23 03:20:51;;;;;;;5.60;3.63;;;;;;;9.10;70.52;99626.34;4862053;29;20072;-90
2022/09/23 03:23:24;;;;;;;7.18;3.67;;;;;;;9.07;69.78;99609.94;4832531;29;20057;-90
2022/09/23 03:25:49;;;;;;;4.55;3.00;;;;;;;9.17;69.45;99620.78;4831851;29;20089;-90
2022/09/23 03:28:16;;;;;;;5.32;3.60;;;;;;;9.26;69.28;99618.44;4830668;29;20508;-90
2022/09/23 03:30:42;;;;;;;5.63;3.13;;;;;;;9.12;69.17;99587.69;4815784;29;20041;-89
2022/09/23 03:33:09;;;;;;;6.68;3.67;;;;;;;9.23;69.43;99618.94;4833194;29;20026;-90
2022/09/23 03:36:48;;;;;;;5.78;3.22;;;;;;;8.87;70.26;99611.31;4834084;29;20120;-90
2022/09/23 03:38:23;;;;;;;7.32;3.53;;;;;;;8.70;71.42;99592.59;4836933;29;20113;-91
2022/09/23 03:40:49;;;;;;;5.43;3.75;;;;;;;8.67;71.36;99608.38;4820725;29;20097;-90
2022/09/23 03:43:15;;;;;;;5.75;4.10;;;;;;;8.58;71.70;99597.28;4832193;29;20117;-90
2022/09/23 03:45:41;;;;;;;8.07;4.13;;;;;;;8.46;72.46;99589.34;4830816;29;20497;-91
2022/09/23 03:48:07;;;;;;;8.00;4.53;;;;;;;8.49;72.30;99599.59;4831325;29;20025;-90
2022/09/23 03:50:34;;;;;;;6.72;4.43;;;;;;;8.54;72.13;99614.13;4831698;29;20044;-91
2022/09/23 03:53:00;;;;;;;7.63;4.50;;;;;;;8.10;73.93;99598.75;4831738;29;20077;-90
2022/09/23 03:55:25;;;;;;;9.18;5.28;;;;;;;7.90;75.59;99608.09;4831277;29;20108;-90
2022/09/23 03:57:51;;;;;;;9.05;5.03;;;;;;;7.85;75.31;99604.56;4830255;29;20564;-89
2022/09/23 04:00:16;;;;;;;11.27;4.85;;;;;;;7.90;74.55;99585.84;4830398;29;20127;-90
2022/09/23 04:02:42;;;;;;;9.20;5.65;;;;;;;8.15;74.57;99619.47;4831154;29;20029;-90
2022/09/23 04:05:08;;;;;;;8.15;4.75;;;;;;;8.07;73.96;99583.16;4831158;29;20172;-90
2022/09/23 04:07:34;;;;;;;10.68;5.25;;;;;;;8.06;74.56;99603.78;4815018;29;20033;-89
2022/09/23 04:10:03;;;;;;;7.93;4.95;;;;;;;7.96;75.12;99597.47;4830545;29;20092;-90
2022/09/23 04:12:29;;;;;;;11.43;5.38;;;;;;;7.86;75.29;99577.50;4816011;29;20033;-90
2022/09/23 04:14:54;;;;;;;9.88;6.20;;;;;;;7.99;74.53;99600.50;4830013;29;20033;-90
2022/09/23 04:17:20;;;;;;;13.30;5.75;;;;;;;8.01;74.66;99597.53;4815236;29;20041;-91
2022/09/23 04:19:45;;;;;;;14.05;6.38;;;;;;;8.08;74.07;99598.19;4831729;29;20429;-90
2022/09/23 04:22:11;;;;;;;8.98;5.25;;;;;;;8.07;74.29;99593.88;4829611;29;20428;-89
2022/09/23 04:24:36;;;;;;;13.05;5.45;;;;;;;7.98;75.22;99596.16;4830115;29;20040;-90
2022/09/23 04:27:02;;;;;;;10.65;4.30;;;;;;;7.82;75.11;99597.00;4830241;29;20037;-90
2022/09/23 04:29:27;;;;;;;6.40;3.75;;;;;;;7.86;74.90;99614.22;4846431;29;20056;-90
2022/09/23 04:31:56;;;;;;;9.02;4.90;;;;;;;7.82;75.46;99602.34;4833865;29;20025;-93
2022/09/23 04:34:21;;;;;;;11.15;7.35;;;;;;;7.72;75.43;99586.94;4834779;29;20089;-92
2022/09/23 04:36:47;;;;;;;12.20;4.57;;;;;;;7.92;75.20;99612.44;4819018;29;20029;-90
2022/09/23 04:39:13;;;;;;;8.45;4.32;;;;;;;8.01;75.05;99621.66;4830955;29;20057;-91
2022/09/23 04:41:39;;;;;;;7.72;4.70;;;;;;;7.92;75.14;99607.88;4816550;29;20118;-91
2022/09/23 04:44:05;;;;;;;7.40;3.97;;;;;;;8.05;74.44;99612.06;4831775;29;20116;-91
2022/09/23 04:46:30;;;;;;;8.57;4.15;;;;;;;7.95;75.09;99614.59;4831192;29;20072;-89
2022/09/23 04:48:56;;;;;;;6.15;3.88;;;;;;;8.11;74.26;99621.81;4830298;29;20026;-89
2022/09/23 04:51:23;;;;;;;14.65;5.72;;;;;;;8.20;73.84;99615.00;4830994;29;20041;-91
2022/09/23 04:53:49;;;;;;;11.65;5.93;;;;;;;8.42;73.01;99627.66;4831469;29;20124;-91
2022/09/23 04:56:16;;;;;;;14.05;4.97;;;;;;;8.51;72.95;99631.56;4816081;29;20034;-92
2022/09/23 04:58:42;;;;;;;9.30;3.70;;;;;;;8.62;72.27;99624.44;4845270;29;20044;-91
2022/09/23 05:01:11;;;;;;;14.85;3.70;;;;;;;8.67;71.85;99645.97;4820341;29;20033;-92
2022/09/23 05:03:37;;;;;;;4.78;3.78;;;;;;;8.65;71.82;99635.50;4831669;29;20098;-92
2022/09/23 05:06:03;;;;;;;6.65;3.50;;;;;;;8.60;72.20;99650.72;4830486;29;20120;-90
2022/09/23 05:08:33;;;;;;;6.88;3.92;;;;;;;8.53;72.12;99631.28;4829425;29;20032;-87
2022/09/23 05:11:00;;;;;;;9.73;4.78;;;;;;;8.61;72.25;99644.28;4814705;29;20029;-87
2022/09/23 05:13:25;;;;;;;8.80;5.22;;;;;;;8.63;72.21;99644.84;4830852;29;20026;-90
2022/09/23 05:15:57;;;;;;;12.43;4.80;;;;;;;8.75;72.12;99644.72;4830895;29;20036;-89
2022/09/23 05:18:24;;;;;;;6.60;3.75;;;;;;;8.98;71.03;99640.97;4816563;29;20021;-92
2022/09/23 05:20:56;;;;;;;7.35;3.75;;;;;;;8.89;70.61;99627.19;4874240;29;20496;-91
2022/09/23 05:23:22;;;;;;;6.00;3.83;;;;;;;9.08;69.79;99649.94;4849010;29;20524;-90
2022/09/23 05:25:48;;;;;;;6.97;3.67;;;;;;;9.00;70.37;99644.22;4833296;29;20033;-90
2022/09/23 05:28:18;;;;;;;5.55;3.70;;;;;;;8.91;69.83;99635.78;4848100;29;20033;-91
2022/09/23 05:30:44;;;;;;;5.82;3.55;;;;;;;9.19;70.60;99666.19;4831568;29;20036;-92
2022/09/23 05:33:13;;;;;;;8.23;3.55;;;;;;;9.17;69.77;99652.19;4815396;29;20029;-90
2022/09/23 05:35:38;;;;;;;6.47;3.70;;;;;;;9.07;70.59;99639.47;4810860;29;20057;-90
2022/09/23 05:38:04;;;;;;;4.03;2.92;;;;;;;9.25;69.37;99646.38;4826676;29;20090;-92
2022/09/23 05:40:30;;;;;;;3.63;2.75;;;;;;;9.43;68.99;99653.28;4854163;29;20060;-90
2022/09/23 05:42:56;;;;;;;5.78;3.80;;;;;;;9.43;68.92;99646.00;4847608;29;20124;-90
2022/09/23 05:45:31;;;;;;;6.30;3.15;;;;;;;9.58;68.35;99652.59;4836406;29;20033;-91
2022/09/23 05:47:58;;;;;;;5.95;3.55;;;;;;;9.69;68.99;99655.13;4843976;29;20124;-90
2022/09/23 05:50:27;;;;;;;7.22;5.15;;;;;;;9.88;68.26;99655.56;4828802;29;20025;-92
2022/09/23 05:52:52;;;;;;;8.90;5.53;;;;;;;9.88;68.02;99636.72;4829140;29;20050;-91
2022/09/23 05:55:18;;;;;;;5.05;3.83;;;;;;;10.08;66.95;99662.16;4829358;29;20036;-92
2022/09/23 05:57:44;;;;;;;4.57;3.72;;;;;;;10.29;67.14;99669.34;4831929;29;20050;-89
2022/09/23 06:00:10;;;;;;;11.02;4.32;;;;;;;10.44;66.53;99662.44;4834759;29;20489;-90
2022/09/23 06:02:35;;;;;;;7.03;5.05;;;;;;;10.42;66.67;99659.19;4822386;29;20060;-91
2022/09/23 06:05:01;;;;;;;8.05;4.10;;;;;;;10.62;66.43;99661.97;4848114;29;20060;-89
2022/09/23 06:07:31;;;;;;;9.95;5.13;;;;;;;10.59;65.87;99653.63;4847221;29;20520;-90
2022/09/23 06:09:57;;;;;;;7.43;5.30;;;;;;;10.71;65.44;99660.44;4847517;29;20049;-90
2022/09/23 06:12:23;;;;;;;7.82;5.35;;;;;;;10.73;65.45;99654.78;4833520;29;20053;-90
2022/09/23 06:14:49;;;;;;;11.73;8.13;;;;;;;10.91;64.79;99673.19;4863768;29;20045;-92
2022/09/23 06:17:15;;;;;;;7.15;5.25;;;;;;;11.06;64.31;99658.13;4832911;29;20026;-92
2022/09/23 06:19:40;;;;;;;8.93;5.60;;;;;;;11.11;64.52;99664.34;4832533;29;20033;-91
2022/09/23 06:22:06;;;;;;;14.23;6.60;;;;;;;11.25;63.79;99651.19;4868513;29;20029;-91
2022/09/23 06:24:33;;;;;;;12.15;7.28;;;;;;;11.47;63.66;99656.34;4839322;29;20499;-90
2022/09/23 06:26:59;;;;;;;9.70;5.85;;;;;;;11.70;63.41;99668.53;4824131;29;20094;-91
2022/09/23 06:29:25;;;;;;;16.92;6.68;;;;;;;11.79;62.77;99670.69;4832611;29;20124;-90
2022/09/23 06:31:51;;;;;;;9.57;5.53;;;;;;;11.71;62.86;99647.75;4847719;29;20043;-89
2022/09/23 06:34:16;;;;;;;6.10;3.97;;;;;;;11.91;61.23;99655.88;4831810;29;20030;-90
2022/09/23 06:36:42;;;;;;;5.68;3.95;;;;;;;12.05;60.95;99666.94;4831625;29;20029;-88
2022/09/23 06:39:07;;;;;;;4.65;3.08;;;;;;;12.06;59.34;99646.16;4816766;29;20064;-89
2022/09/23 06:41:33;;;;;;;3.42;2.17;;;;;;;12.20;58.90;99646.41;4831392;29;20026;-90
2022/09/23 06:43:59;;;;;;;3.88;2.88;;;;;;;12.26;58.17;99648.81;4832105;29;20097;-90
2022/09/23 06:46:30;;;;;;;3.63;2.10;;;;;;;12.58;57.82;99674.69;4831687;29;20034;-89
2022/09/23 06:49:01;;;;;;;2.65;1.83;;;;;;;12.50;57.35;99657.16;4816950;29;20124;-92
2022/09/23 06:51:27;;;;;;;4.67;2.10;;;;;;;12.70;56.91;99674.38;4832833;29;20041;-90
2022/09/23 06:53:52;;;;;;;2.60;1.85;;;;;;;12.69;56.32;99657.38;4847012;29;20021;-90
2022/09/23 06:56:19;;;;;;;4.15;2.00;;;;;;;12.67;56.23;99642.50;4830783;29;20064;-91
2022/09/23 06:58:45;;;;;;;3.08;2.03;;;;;;;12.74;56.30;99649.25;4846757;29;20405;-90
2022/09/23 07:01:14;;;;;;;2.20;1.67;;;;;;;12.77;55.76;99647.88;4831577;29;20059;-91
2022/09/23 07:03:40;;;;;;;2.28;1.52;;;;;;;12.86;57.20;99653.53;4831861;29;20412;-91
2022/09/23 07:06:06;;;;;;;4.38;1.85;;;;;;;13.01;56.10;99653.47;4832509;29;20037;-90
2022/09/23 07:08:32;;;;;;;5.00;3.53;;;;;;;13.17;55.65;99642.56;4834007;29;20033;-90
2022/09/23 07:10:59;;;;;;;4.82;2.95;;;;;;;13.14;55.43;99643.94;4841998;29;20472;-93
2022/09/23 07:13:25;;;;;;;5.55;3.20;;;;;;;13.31;55.11;99663.34;4833105;29;20034;-90
2022/09/23 07:15:57;;;;;;;4.95;3.47;;;;;;;13.29;54.99;99649.28;4833562;29;20130;-96
2022/09/23 07:18:22;;;;;;;4.50;2.80;;;;;;;13.40;55.22;99650.03;4856335;29;20052;-95
2022/09/23 07:21:23;;;;;;;5.85;3.50;;;;;;;13.79;54.16;99668.16;4849027;29;20041;-90
2022/09/23 07:23:50;;;;;;;3.72;2.10;;;;;;;13.81;54.06;99657.84;4776733;29;20030;-92
2022/09/23 07:26:23;;;;;;;5.75;1.95;;;;;;;14.11;52.69;99667.63;4823706;29;20399;-96
2022/09/23 07:29:03;;;;;;;2.95;1.98;;;;;;;14.32;51.55;99679.09;4832240;29;20034;-96
2022/09/23 07:31:37;;;;;;;3.95;2.33;;;;;;;14.41;51.33;99648.66;4859116;29;20057;-96
2022/09/23 07:34:03;;;;;;;3.30;2.90;;;;;;;14.60;51.12;99659.59;4849990;29;20062;-96
2022/09/23 07:36:31;;;;;;;2.33;2.10;;;;;;;14.78;50.55;99649.91;4842558;29;20042;-96
2022/09/23 07:52:25;;;;;;;1.35;1.02;;;;;;;15.34;47.13;99679.03;4852688;29;20068;-95
2022/09/23 07:54:59;;;;;;;2.72;1.30;;;;;;;15.30;47.21;99656.28;4859720;29;20053;-96
2022/09/23 07:57:25;;;;;;;2.40;1.52;;;;;;;15.35;47.07;99639.94;4853079;29;20030;-94
2022/09/23 07:59:59;;;;;;;1.95;1.30;;;;;;;15.63;47.97;99654.44;4850428;29;20126;-96
2022/09/23 08:02:28;;;;;;;2.80;0.90;;;;;;;15.68;45.97;99665.22;4845668;29;20040;-95
2022/09/23 08:04:54;;;;;;;1.38;0.98;;;;;;;15.74;45.75;99668.69;4859625;29;20053;-92
2022/09/23 08:07:19;;;;;;;1.42;1.10;;;;;;;16.08;46.15;99663.00;4838721;29;20501;-94
2022/09/23 08:09:45;;;;;;;2.38;1.45;;;;;;;16.26;45.80;99666.72;4845169;29;20498;-93
2022/09/23 08:12:21;;;;;;;2.50;1.40;;;;;;;16.29;45.09;99651.75;4849614;29;20580;-94
2022/09/23 08:14:51;;;;;;;2.72;1.13;;;;;;;16.46;44.44;99662.84;4834142;29;20034;-95
2022/09/23 08:17:16;;;;;;;1.92;1.17;;;;;;;16.65;43.95;99656.53;4854198;29;20398;-96
2022/09/23 08:19:42;;;;;;;3.60;1.17;;;;;;;16.82;43.98;99669.53;4846020;29;20034;-95
2022/09/23 08:22:18;;;;;;;37.13;21.98;;;;;;;16.61;42.82;99672.63;4834702;29;20481;-96
2022/09/23 08:24:46;;;;;;;2.40;1.70;;;;;;;16.30;43.30;99675.91;4838203;29;20042;-95
2022/09/23 08:27:16;;;;;;;1.23;0.90;;;;;;;16.26;42.89;99668.66;4837794;29;20500;-95
2022/09/23 08:29:41;;;;;;;1.42;1.00;;;;;;;16.03;43.78;99664.97;4835057;29;20042;-95
2022/09/23 08:32:07;;;;;;;3.67;1.75;;;;;;;15.92;43.83;99653.47;4836219;29;20033;-95
2022/09/23 08:34:34;;;;;;;2.28;1.23;;;;;;;15.85;43.30;99658.47;4847406;29;20033;-95
2022/09/23 08:37:12;;;;;;;4.38;1.27;;;;;;;15.79;43.78;99671.31;4851149;29;20048;-96
2022/09/23 08:39:37;;;;;;;1.45;1.05;;;;;;;15.66;44.45;99651.13;4839157;29;20021;-96
2022/09/23 08:42:13;;;;;;;2.42;1.30;;;;;;;15.69;44.85;99650.56;4840113;29;20086;-96
2022/09/23 08:45:26;;;;;;;1.85;1.40;;;;;;;16.16;44.83;99680.50;4832866;29;20125;-96
2022/09/23 08:48:32;;;;;;;1.85;1.13;;;;;;;16.49;43.62;99672.31;4850346;29;20037;-96
2022/09/23 08:51:24;;;;;;;6.72;1.60;;;;;;;16.57;43.31;99658.81;4834264;29;20081;-94
2022/09/23 08:53:49;;;;;;;2.08;1.13;;;;;;;16.46;43.47;99654.69;4849300;29;20042;-96
2022/09/23 08:56:25;;;;;;;1.35;0.68;;;;;;;16.18;43.01;99645.69;4865526;29;20044;-94
2022/09/23 08:59:09;;;;;;;1.85;1.15;;;;;;;16.42;43.72;99670.00;4851894;29;20037;-95
2022/09/23 09:01:47;;;;;;;4.95;3.10;;;;;;;16.33;43.53;99663.63;4867447;29;20053;-96
2022/09/23 09:04:34;;;;;;;1.27;0.93;;;;;;;16.20;43.99;99676.06;4873968;29;20089;-96
2022/09/23 09:07:05;;;;;;;1.27;0.82;;;;;;;16.03;44.32;99664.97;4855888;29;20034;-94
2022/09/23 09:09:43;;;;;;;1.52;1.10;;;;;;;16.02;44.33;99664.19;5051594;23;20070;-95
2022/09/23 09:12:16;;;;;;;1.10;0.90;;;;;;;15.75;44.61;99641.25;4951875;28;20047;-94
2022/09/23 09:15:05;;;;;;;1.60;1.00;;;;;;;15.81;44.54;99635.72;4952596;29;20027;-96
2022/09/23 09:23:25;;;;;;;3.15;1.58;;;;;;;16.25;43.25;99624.38;4946379;29;20056;-96
2022/09/23 09:25:58;;;;;;;1.52;0.90;;;;;;;16.16;43.84;99637.84;4940402;29;20039;-94
2022/09/23 09:28:39;;;;;;;2.13;1.08;;;;;;;16.26;43.80;99652.34;4907770;29;20036;-95
2022/09/23 09:31:33;;;;;;;1.30;1.00;;;;;;;15.99;44.36;99647.66;4924459;29;20046;-93
2022/09/23 09:34:21;;;;;;;2.78;1.20;;;;;;;16.09;44.60;99667.31;4909180;29;20091;-95
2022/09/23 09:37:17;;;;;;;1.58;1.23;;;;;;;15.95;45.26;99666.44;4938971;29;20063;-95
2022/09/23 09:39:42;;;;;;;5.00;1.40;;;;;;;15.86;44.97;99647.31;4975021;23;20474;-94
2022/09/23 09:42:41;;;;;;;2.25;1.30;;;;;;;15.92;44.70;99643.41;4923745;29;20043;-96
2022/09/23 09:45:23;;;;;;;4.47;3.10;;;;;;;16.28;44.18;99639.28;4943609;29;20038;-86
2022/09/23 09:48:16;;;;;;;4.22;2.95;;;;;;;16.45;43.79;99661.22;4924015;29;20112;-93
2022/09/23 09:50:43;;;;;;;2.85;2.03;;;;;;;16.30;44.26;99648.72;4944642;29;20035;-94
2022/09/23 09:53:16;;;;;;;1.55;1.00;;;;;;;16.45;43.75;99665.88;4938618;29;20023;-91
2022/09/23 09:59:37;;;;;;;1.80;1.10;;;;;;;16.39;43.54;99664.34;4948773;29;20442;-96
2022/09/23 10:02:41;;;;;;;3.28;1.10;;;;;;;16.27;44.77;99662.09;4951244;29;20035;-95
2022/09/23 10:05:11;;;;;;;2.08;1.40;;;;;;;16.06;44.90;99662.47;4862149;29;20413;-95
2022/09/23 10:07:37;;;;;;;1.80;1.20;;;;;;;15.98;44.51;99655.00;4934798;29;20056;-94
2022/09/23 10:10:36;;;;;;;2.00;1.20;;;;;;;16.06;44.72;99669.81;4913649;29;20058;-96
2022/09/23 10:13:15;;;;;;;3.10;2.20;;;;;;;16.02;44.42;99644.34;4901974;29;20059;-96
2022/09/23 10:15:42;;;;;;;5.30;1.63;;;;;;;16.16;44.87;99651.44;4919137;29;20159;-95
2022/09/23 10:18:21;;;;;;;2.17;1.42;;;;;;;16.25;44.50;99639.84;4932295;29;20035;-96
2022/09/23 10:21:47;;;;;;;1.25;0.90;;;;;;;16.42;44.98;99670.00;4949194;29;20039;-96
2022/09/23 10:24:20;;;;;;;3.15;1.25;;;;;;;16.51;43.73;99653.78;4939976;29;20487;-94
2022/09/23 10:27:00;;;;;;;1.88;1.00;;;;;;;16.56;42.95;99643.63;4905861;29;20028;-95
2022/09/23 10:29:45;;;;;;;1.20;1.00;;;;;;;16.53;43.30;99632.53;4926283;29;20023;-95
2022/09/23 10:32:53;;;;;;;1.67;1.10;;;;;;;16.42;44.03;99659.13;5318544;23;20050;-95
2022/09/23 10:47:49;;;;;;;1.85;1.40;;;;;;;16.50;43.52;99606.78;4898608;29;20047;-94
2022/09/23 10:50:50;;;;;;;3.53;1.40;;;;;;;16.86;42.92;99632.47;4907419;29;20043;-93
2022/09/23 10:53:24;;;;;;;2.65;1.40;;;;;;;16.84;42.50;99629.25;4906416;29;20024;-95
2022/09/23 10:56:11;;;;;;;1.48;1.20;;;;;;;16.82;43.22;99636.91;4906879;29;20036;-93
2022/09/23 11:16:37;;;;;;;1.83;1.10;;;;;;;16.80;43.50;99607.25;4943740;29;20075;-95
2022/09/23 11:22:37;;;;;;;4.20;1.42;;;;;;;16.69;43.61;99611.31;4909796;29;20087;-93
2022/09/23 11:25:29;;;;;;;2.13;1.13;;;;;;;16.77;42.87;99611.41;4925905;29;20028;-95
2022/09/23 11:28:16;;;;;;;2.20;1.20;;;;;;;16.68;41.18;99582.50;4906463;29;20031;-89
2022/09/23 11:31:05;;;;;;;2.53;1.50;;;;;;;16.96;41.69;99592.25;4907866;29;20040;-90
2022/09/23 11:34:20;;;;;;;3.33;1.77;;;;;;;16.77;40.79;99572.53;4934036;29;20136;-93
2022/09/23 11:37:04;;;;;;;1.30;1.10;;;;;;;16.91;40.98;99553.47;4876770;29;20045;-93
2022/09/23 11:39:35;;;;;;;1.35;1.00;;;;;;;17.07;40.78;99564.81;4864590;29;20048;-94
2022/09/23 11:42:03;;;;;;;3.85;1.00;;;;;;;17.14;40.88;99549.69;4907927;29;20011;-95
2022/09/23 11:44:54;;;;;;;1.87;1.10;;;;;;;17.30;39.78;99546.59;4914563;28;20039;-96
2022/09/23 11:47:31;;;;;;;3.30;1.50;;;;;;;17.30;40.28;99557.50;4953114;28;20040;-95
2022/09/23 11:50:05;;;;;;;1.27;1.10;;;;;;;17.06;41.29;99544.97;4937187;29;20503;-95
2022/09/23 11:53:00;;;;;;;1.95;1.20;;;;;;;17.23;41.05;99566.09;4894956;29;20048;-94
2022/09/23 11:55:32;;;;;;;3.28;1.30;;;;;;;17.05;41.95;99550.72;4908738;29;20402;-93
2022/09/23 11:58:22;;;;;;;3.05;1.30;;;;;;;17.02;41.36;99544.00;4898746;29;20035;-95
2022/09/23 12:01:27;;;;;;;3.65;1.38;;;;;;;17.14;41.01;99543.44;4934050;29;20042;-95
2022/09/23 12:04:26;;;;;;;2.33;1.08;;;;;;;17.26;39.73;99549.13;4956780;28;20012;-96
2022/09/23 12:09:47;;;;;;;1.17;0.77;;;;;;;17.54;40.49;99571.59;4946511;28;20047;-88
2022/09/23 12:16:12;;;;;;;1.52;1.20;;;;;;;17.52;41.70;99564.88;5107057;23;20064;-96
2022/09/23 12:18:46;;;;;;;2.17;1.50;;;;;;;17.54;42.09;99562.63;4930282;29;20095;-94
2022/09/23 12:22:03;;;;;;;3.22;1.42;;;;;;;17.48;42.59;99567.41;4923777;29;20068;-93
2022/09/23 12:25:07;;;;;;;2.58;1.30;;;;;;;17.36;41.87;99551.59;4838164;29;20037;-96
2022/09/23 12:28:00;;;;;;;1.77;1.08;;;;;;;17.19;42.25;99540.59;4846167;29;20098;-95
2022/09/23 12:59:16;;;;;;;2.10;1.20;;;;;;;17.35;39.56;99533.69;2929833;23;20112;-95
2022/09/23 13:02:41;;;;;;;3.27;2.10;;;;;;;17.35;40.42;99530.16;5113891;23;20027;-96
2022/09/23 13:10:47;;;;;;;4.88;2.55;;;;;;;17.69;41.89;99517.88;5385440;23;20141;-96
2022/09/23 13:13:44;;;;;;;6.65;2.95;;;;;;;17.67;41.88;99492.88;4957488;28;20055;-96
2022/09/23 13:16:13;;;;;;;3.60;2.63;;;;;;;18.01;39.99;99529.59;5063138;23;20103;-95
2022/09/23 13:18:53;;;;;;;3.08;1.00;;;;;;;18.00;38.32;99512.44;4913453;29;20046;-91
2022/09/23 13:21:44;;;;;;;2.08;1.17;;;;;;;18.19;38.51;99523.09;4923259;29;20023;-90
2022/09/23 13:24:19;;;;;;;3.20;1.20;;;;;;;18.24;39.17;99522.97;4914755;29;20043;-90
2022/09/23 13:26:56;;;;;;;1.77;1.10;;;;;;;18.14;38.72;99524.03;4886520;29;20040;-91
2022/09/23 13:29:42;;;;;;;1.40;1.00;;;;;;;18.07;39.27;99528.31;4871573;29;20040;-91
2022/09/23 13:32:12;;;;;;;3.55;1.00;;;;;;;17.98;39.54;99525.56;4872455;29;20063;-90
2022/09/23 13:34:37;;;;;;;1.90;1.15;;;;;;;17.83;42.46;99543.13;4899379;29;20068;-90
2022/09/23 13:37:20;;;;;;;3.92;1.17;;;;;;;17.54;49.88;99554.47;4906902;29;20080;-89
2022/09/23 13:39:45;;;;;;;5.07;2.25;;;;;;;17.10;56.68;99537.00;4907080;29;20095;-90
2022/09/23 13:42:29;;;;;;;6.25;2.50;;;;;;;17.00;58.84;99543.50;4890481;29;20031;-89
2022/09/23 13:44:56;;;;;;;5.28;2.08;;;;;;;17.04;59.03;99562.75;4906191;29;20138;-89
2022/09/23 13:47:23;;;;;;;5.05;2.22;;;;;;;16.84;60.46;99559.34;4904176;29;20471;-89